sensor_id;sensor_type;location;lat;lon;timestamp;temperature;humidity
44843;DHT22;31884;52.538;13.820;2023-06-10T00:02:00;15.40;99.90
44843;DHT22;31884;52.538;13.820;2023-06-10T00:04:26;15.40;99.90
44843;DHT22;31884;52.538;13.820;2023-06-10T00:06:52;15.40;99.90
44843;DHT22;31884;52.538;13.820;2023-06-10T00:09:19;15.30;99.90
44843;DHT22;31884;52.538;13.820;2023-06-10T00:11:44;15.30;99.90
44843;DHT22;31884;52.538;13.820;2023-06-10T00:14:10;15.30;99.90
44843;DHT22;31884;52.538;13.820;2023-06-10T00:16:35;15.20;99.90
44843;DHT22;31884;52.538;13.820;2023-06-10T00:19:04;15.20;99.90
44843;DHT22;31884;52.538;13.820;2023-06-10T00:21:32;15.20;99.90
44843;DHT22;31884;52.538;13.820;2023-06-10T00:24:06;15.10;99.90
44843;DHT22;31884;52.538;13.820;2023-06-10T00:26:32;15.10;99.90
44843;DHT22;31884;52.538;13.820;2023-06-10T00:28:58;15.10;99.90
44843;DHT22;31884;52.538;13.820;2023-06-10T00:31:24;15.00;99.90
44843;DHT22;31884;52.538;13.820;2023-06-10T00:33:51;15.00;99.90
44843;DHT22;31884;52.538;13.820;2023-06-10T00:36:17;15.00;99.90
44843;DHT22;31884;52.538;13.820;2023-06-10T00:38:42;15.00;99.90
44843;DHT22;31884;52.538;13.820;2023-06-10T00:41:08;14.90;99.90
44843;DHT22;31884;52.538;13.820;2023-06-10T00:43:33;14.90;99.90
44843;DHT22;31884;52.538;13.820;2023-06-10T00:45:59;14.90;99.90
44843;DHT22;31884;52.538;13.820;2023-06-10T00:48:25;14.80;99.90
44843;DHT22;31884;52.538;13.820;2023-06-10T00:50:51;14.80;99.90
44843;DHT22;31884;52.538;13.820;2023-06-10T00:53:16;14.80;99.90
44843;DHT22;31884;52.538;13.820;2023-06-10T00:55:43;14.70;99.90
44843;DHT22;31884;52.538;13.820;2023-06-10T00:58:08;14.70;99.90
44843;DHT22;31884;52.538;13.820;2023-06-10T01:00:34;14.70;99.90
44843;DHT22;31884;52.538;13.820;2023-06-10T01:02:59;14.70;99.90
44843;DHT22;31884;52.538;13.820;2023-06-10T01:05:25;14.60;99.90
44843;DHT22;31884;52.538;13.820;2023-06-10T01:08:18;14.60;99.90
44843;DHT22;31884;52.538;13.820;2023-06-10T01:10:53;14.60;99.90
44843;DHT22;31884;52.538;13.820;2023-06-10T01:13:22;14.60;99.90
44843;DHT22;31884;52.538;13.820;2023-06-10T01:15:49;14.50;99.90
44843;DHT22;31884;52.538;13.820;2023-06-10T01:18:15;14.50;99.90
44843;DHT22;31884;52.538;13.820;2023-06-10T01:20:42;14.50;99.90
44843;DHT22;31884;52.538;13.820;2023-06-10T01:23:09;14.40;99.90
44843;DHT22;31884;52.538;13.820;2023-06-10T01:25:38;14.40;99.90
44843;DHT22;31884;52.538;13.820;2023-06-10T01:28:14;14.40;99.90
44843;DHT22;31884;52.538;13.820;2023-06-10T01:30:59;14.40;99.90
44843;DHT22;31884;52.538;13.820;2023-06-10T01:33:35;14.40;99.90
44843;DHT22;31884;52.538;13.820;2023-06-10T01:36:02;14.30;99.90
44843;DHT22;31884;52.538;13.820;2023-06-10T01:38:32;14.30;99.90
44843;DHT22;31884;52.538;13.820;2023-06-10T01:40:59;14.30;99.90
44843;DHT22;31884;52.538;13.820;2023-06-10T01:43:25;14.30;99.90
44843;DHT22;31884;52.538;13.820;2023-06-10T01:45:50;14.30;99.90
44843;DHT22;31884;52.538;13.820;2023-06-10T01:48:16;14.20;99.90
44843;DHT22;31884;52.538;13.820;2023-06-10T01:50:41;14.30;99.90
44843;DHT22;31884;52.538;13.820;2023-06-10T01:53:09;14.20;99.90
44843;DHT22;31884;52.538;13.820;2023-06-10T01:55:34;14.20;99.90
44843;DHT22;31884;52.538;13.820;2023-06-10T01:58:00;14.20;99.90
44843;DHT22;31884;52.538;13.820;2023-06-10T02:00:25;14.20;99.90
44843;DHT22;31884;52.538;13.820;2023-06-10T02:02:51;14.20;99.90
44843;DHT22;31884;52.538;13.820;2023-06-10T02:05:16;14.20;99.90
44843;DHT22;31884;52.538;13.820;2023-06-10T02:07:42;14.20;99.90
44843;DHT22;31884;52.538;13.820;2023-06-10T02:10:08;14.20;99.90
44843;DHT22;31884;52.538;13.820;2023-06-10T02:12:33;14.10;99.90
44843;DHT22;31884;52.538;13.820;2023-06-10T02:14:59;14.10;99.90
44843;DHT22;31884;52.538;13.820;2023-06-10T02:17:24;14.10;99.90
44843;DHT22;31884;52.538;13.820;2023-06-10T02:19:50;14.10;99.90
44843;DHT22;31884;52.538;13.820;2023-06-10T02:22:22;14.10;99.90
44843;DHT22;31884;52.538;13.820;2023-06-10T02:24:48;14.10;99.90
44843;DHT22;31884;52.538;13.820;2023-06-10T02:27:15;14.10;99.90
44843;DHT22;31884;52.538;13.820;2023-06-10T02:29:40;14.10;99.90
44843;DHT22;31884;52.538;13.820;2023-06-10T02:32:07;14.10;99.90
44843;DHT22;31884;52.538;13.820;2023-06-10T02:34:32;14.10;99.90
44843;DHT22;31884;52.538;13.820;2023-06-10T02:36:59;14.10;99.90
44843;DHT22;31884;52.538;13.820;2023-06-10T02:39:24;14.10;99.90
44843;DHT22;31884;52.538;13.820;2023-06-10T02:41:50;14.10;99.90
44843;DHT22;31884;52.538;13.820;2023-06-10T02:44:17;14.10;99.90
44843;DHT22;31884;52.538;13.820;2023-06-10T02:46:43;14.10;99.90
44843;DHT22;31884;52.538;13.820;2023-06-10T02:49:08;14.20;99.90
44843;DHT22;31884;52.538;13.820;2023-06-10T02:51:33;14.20;99.90
44843;DHT22;31884;52.538;13.820;2023-06-10T02:53:59;14.20;99.90
44843;DHT22;31884;52.538;13.820;2023-06-10T02:56:24;14.20;99.90
44843;DHT22;31884;52.538;13.820;2023-06-10T02:58:51;14.20;99.90
44843;DHT22;31884;52.538;13.820;2023-06-10T03:01:17;14.20;99.90
44843;DHT22;31884;52.538;13.820;2023-06-10T03:03:44;14.20;99.90
44843;DHT22;31884;52.538;13.820;2023-06-10T03:06:12;14.30;99.90
44843;DHT22;31884;52.538;13.820;2023-06-10T03:08:38;14.30;99.90
44843;DHT22;31884;52.538;13.820;2023-06-10T03:11:03;14.30;99.90
44843;DHT22;31884;52.538;13.820;2023-06-10T03:13:29;14.40;99.90
44843;DHT22;31884;52.538;13.820;2023-06-10T03:15:55;14.40;99.90
44843;DHT22;31884;52.538;13.820;2023-06-10T03:18:20;14.50;99.90
44843;DHT22;31884;52.538;13.820;2023-06-10T03:20:48;14.50;99.90
44843;DHT22;31884;52.538;13.820;2023-06-10T03:23:13;14.50;99.90
44843;DHT22;31884;52.538;13.820;2023-06-10T03:25:39;14.50;99.90
44843;DHT22;31884;52.538;13.820;2023-06-10T03:28:04;14.60;99.90
44843;DHT22;31884;52.538;13.820;2023-06-10T03:30:30;14.60;99.90
44843;DHT22;31884;52.538;13.820;2023-06-10T03:32:56;14.60;99.90
44843;DHT22;31884;52.538;13.820;2023-06-10T03:35:21;14.70;99.90
44843;DHT22;31884;52.538;13.820;2023-06-10T03:37:47;14.70;99.90
44843;DHT22;31884;52.538;13.820;2023-06-10T03:40:13;14.70;99.90
44843;DHT22;31884;52.538;13.820;2023-06-10T03:42:38;14.80;99.90
44843;DHT22;31884;52.538;13.820;2023-06-10T03:45:04;14.90;99.90
44843;DHT22;31884;52.538;13.820;2023-06-10T03:47:37;15.00;99.90
44843;DHT22;31884;52.538;13.820;2023-06-10T03:50:03;15.00;99.90
44843;DHT22;31884;52.538;13.820;2023-06-10T03:52:29;15.10;99.90
44843;DHT22;31884;52.538;13.820;2023-06-10T03:54:55;15.20;99.90
44843;DHT22;31884;52.538;13.820;2023-06-10T03:57:20;15.40;99.90
44843;DHT22;31884;52.538;13.820;2023-06-10T03:59:46;15.50;99.90
44843;DHT22;31884;52.538;13.820;2023-06-10T04:02:11;15.70;99.90
44843;DHT22;31884;52.538;13.820;2023-06-10T04:04:37;15.90;99.90
44843;DHT22;31884;52.538;13.820;2023-06-10T04:07:04;16.20;99.90
44843;DHT22;31884;52.538;13.820;2023-06-10T04:09:30;16.80;99.90
44843;DHT22;31884;52.538;13.820;2023-06-10T04:11:55;17.20;99.90
44843;DHT22;31884;52.538;13.820;2023-06-10T04:14:20;17.50;99.90
44843;DHT22;31884;52.538;13.820;2023-06-10T04:16:46;17.90;99.90
44843;DHT22;31884;52.538;13.820;2023-06-10T04:19:11;18.40;99.90
44843;DHT22;31884;52.538;13.820;2023-06-10T04:21:37;19.20;99.30
44843;DHT22;31884;52.538;13.820;2023-06-10T04:24:03;19.80;96.00
44843;DHT22;31884;52.538;13.820;2023-06-10T04:26:28;20.40;94.10
44843;DHT22;31884;52.538;13.820;2023-06-10T04:28:54;20.90;91.50
44843;DHT22;31884;52.538;13.820;2023-06-10T04:31:19;21.30;79.30
44843;DHT22;31884;52.538;13.820;2023-06-10T04:33:45;21.60;68.80
44843;DHT22;31884;52.538;13.820;2023-06-10T04:36:11;21.80;73.00
44843;DHT22;31884;52.538;13.820;2023-06-10T04:38:36;22.10;69.80
44843;DHT22;31884;52.538;13.820;2023-06-10T04:41:02;21.90;64.10
44843;DHT22;31884;52.538;13.820;2023-06-10T04:43:28;22.20;64.40
44843;DHT22;31884;52.538;13.820;2023-06-10T04:45:55;22.60;69.10
44843;DHT22;31884;52.538;13.820;2023-06-10T04:48:20;23.10;67.40
44843;DHT22;31884;52.538;13.820;2023-06-10T04:50:45;23.40;57.40
44843;DHT22;31884;52.538;13.820;2023-06-10T04:53:11;23.80;63.60
44843;DHT22;31884;52.538;13.820;2023-06-10T04:55:36;24.20;60.20
44843;DHT22;31884;52.538;13.820;2023-06-10T04:58:02;24.40;59.90
44843;DHT22;31884;52.538;13.820;2023-06-10T05:00:27;24.90;58.40
44843;DHT22;31884;52.538;13.820;2023-06-10T05:02:53;24.70;48.60
44843;DHT22;31884;52.538;13.820;2023-06-10T05:05:19;24.70;47.70
44843;DHT22;31884;52.538;13.820;2023-06-10T05:07:44;24.80;47.30
44843;DHT22;31884;52.538;13.820;2023-06-10T05:10:10;24.70;46.20
44843;DHT22;31884;52.538;13.820;2023-06-10T05:12:40;24.90;47.00
44843;DHT22;31884;52.538;13.820;2023-06-10T05:15:07;24.70;49.30
44843;DHT22;31884;52.538;13.820;2023-06-10T05:17:32;25.20;48.60
44843;DHT22;31884;52.538;13.820;2023-06-10T05:19:58;25.30;48.30
44843;DHT22;31884;52.538;13.820;2023-06-10T05:22:24;25.80;39.60
44843;DHT22;31884;52.538;13.820;2023-06-10T05:24:50;25.40;43.40
44843;DHT22;31884;52.538;13.820;2023-06-10T05:27:16;25.20;41.60
44843;DHT22;31884;52.538;13.820;2023-06-10T05:29:42;25.80;43.20
44843;DHT22;31884;52.538;13.820;2023-06-10T05:32:08;26.40;38.80
44843;DHT22;31884;52.538;13.820;2023-06-10T05:34:34;26.60;39.10
44843;DHT22;31884;52.538;13.820;2023-06-10T05:36:59;26.80;38.40
44843;DHT22;31884;52.538;13.820;2023-06-10T05:39:25;26.80;33.50
44843;DHT22;31884;52.538;13.820;2023-06-10T05:41:50;26.30;36.40
44843;DHT22;31884;52.538;13.820;2023-06-10T05:44:16;26.70;31.70
44843;DHT22;31884;52.538;13.820;2023-06-10T05:46:41;26.50;34.00
44843;DHT22;31884;52.538;13.820;2023-06-10T05:49:07;26.60;31.90
44843;DHT22;31884;52.538;13.820;2023-06-10T05:51:32;27.40;34.30
44843;DHT22;31884;52.538;13.820;2023-06-10T05:53:58;28.70;31.00
44843;DHT22;31884;52.538;13.820;2023-06-10T05:56:23;29.50;27.90
44843;DHT22;31884;52.538;13.820;2023-06-10T05:58:51;29.30;25.20
44843;DHT22;31884;52.538;13.820;2023-06-10T06:01:16;28.40;26.60
44843;DHT22;31884;52.538;13.820;2023-06-10T06:03:42;29.10;26.40
44843;DHT22;31884;52.538;13.820;2023-06-10T06:06:07;29.30;25.00
44843;DHT22;31884;52.538;13.820;2023-06-10T06:08:33;29.60;23.20
44843;DHT22;31884;52.538;13.820;2023-06-10T06:10:58;29.70;20.80
44843;DHT22;31884;52.538;13.820;2023-06-10T06:13:24;29.60;21.20
44843;DHT22;31884;52.538;13.820;2023-06-10T06:15:50;29.00;21.40
44843;DHT22;31884;52.538;13.820;2023-06-10T06:18:15;29.60;20.70
44843;DHT22;31884;52.538;13.820;2023-06-10T06:20:41;29.20;20.60
44843;DHT22;31884;52.538;13.820;2023-06-10T06:23:06;29.40;20.40
44843;DHT22;31884;52.538;13.820;2023-06-10T06:25:35;29.80;19.20
44843;DHT22;31884;52.538;13.820;2023-06-10T06:28:01;30.10;18.80
44843;DHT22;31884;52.538;13.820;2023-06-10T06:30:26;30.90;19.50
44843;DHT22;31884;52.538;13.820;2023-06-10T06:32:52;31.60;17.40
44843;DHT22;31884;52.538;13.820;2023-06-10T06:35:18;31.40;16.40
44843;DHT22;31884;52.538;13.820;2023-06-10T06:37:44;30.30;16.50
44843;DHT22;31884;52.538;13.820;2023-06-10T06:40:09;30.60;17.40
44843;DHT22;31884;52.538;13.820;2023-06-10T06:42:36;30.50;16.90
44843;DHT22;31884;52.538;13.820;2023-06-10T06:45:02;29.60;17.70
44843;DHT22;31884;52.538;13.820;2023-06-10T06:47:27;28.70;18.90
44843;DHT22;31884;52.538;13.820;2023-06-10T06:49:53;27.70;20.40
44843;DHT22;31884;52.538;13.820;2023-06-10T06:52:18;27.30;21.70
44843;DHT22;31884;52.538;13.820;2023-06-10T06:54:44;26.80;22.30
44843;DHT22;31884;52.538;13.820;2023-06-10T06:57:10;26.60;23.30
44843;DHT22;31884;52.538;13.820;2023-06-10T06:59:35;26.60;23.80
44843;DHT22;31884;52.538;13.820;2023-06-10T07:02:01;26.80;23.60
44843;DHT22;31884;52.538;13.820;2023-06-10T07:04:26;27.20;22.90
44843;DHT22;31884;52.538;13.820;2023-06-10T07:06:52;28.40;21.50
44843;DHT22;31884;52.538;13.820;2023-06-10T07:09:17;29.70;20.10
44843;DHT22;31884;52.538;13.820;2023-06-10T07:11:43;30.40;18.00
44843;DHT22;31884;52.538;13.820;2023-06-10T07:14:08;31.30;17.30
44843;DHT22;31884;52.538;13.820;2023-06-10T07:16:34;32.30;15.90
44843;DHT22;31884;52.538;13.820;2023-06-10T07:19:00;33.50;15.00
44843;DHT22;31884;52.538;13.820;2023-06-10T07:21:25;34.50;13.50
44843;DHT22;31884;52.538;13.820;2023-06-10T07:23:51;34.40;10.70
44843;DHT22;31884;52.538;13.820;2023-06-10T07:26:21;34.20;11.70
44843;DHT22;31884;52.538;13.820;2023-06-10T07:28:47;34.70;11.10
44843;DHT22;31884;52.538;13.820;2023-06-10T07:31:12;33.80;11.40
44843;DHT22;31884;52.538;13.820;2023-06-10T07:33:38;33.20;10.60
44843;DHT22;31884;52.538;13.820;2023-06-10T07:36:07;31.70;12.20
44843;DHT22;31884;52.538;13.820;2023-06-10T07:38:32;30.50;14.50
44843;DHT22;31884;52.538;13.820;2023-06-10T07:40:58;30.60;14.80
44843;DHT22;31884;52.538;13.820;2023-06-10T07:43:24;29.70;15.90
44843;DHT22;31884;52.538;13.820;2023-06-10T07:45:50;30.00;15.50
44843;DHT22;31884;52.538;13.820;2023-06-10T07:48:15;30.20;15.00
44843;DHT22;31884;52.538;13.820;2023-06-10T07:50:41;30.90;14.30
44843;DHT22;31884;52.538;13.820;2023-06-10T07:53:06;31.40;13.60
44843;DHT22;31884;52.538;13.820;2023-06-10T07:55:32;31.30;13.40
44843;DHT22;31884;52.538;13.820;2023-06-10T07:57:57;31.10;13.50
44843;DHT22;31884;52.538;13.820;2023-06-10T08:00:23;31.50;12.50
44843;DHT22;31884;52.538;13.820;2023-06-10T08:02:48;31.80;12.00
44843;DHT22;31884;52.538;13.820;2023-06-10T08:05:14;31.20;12.50
44843;DHT22;31884;52.538;13.820;2023-06-10T08:07:40;31.20;13.20
44843;DHT22;31884;52.538;13.820;2023-06-10T08:10:06;32.10;12.50
44843;DHT22;31884;52.538;13.820;2023-06-10T08:12:32;33.10;11.70
44843;DHT22;31884;52.538;13.820;2023-06-10T08:14:58;34.20;8.60
44843;DHT22;31884;52.538;13.820;2023-06-10T08:17:24;33.50;8.90
44843;DHT22;31884;52.538;13.820;2023-06-10T08:19:49;33.20;9.20
44843;DHT22;31884;52.538;13.820;2023-06-10T08:22:15;33.20;8.00
44843;DHT22;31884;52.538;13.820;2023-06-10T08:24:40;32.60;8.80
44843;DHT22;31884;52.538;13.820;2023-06-10T08:27:06;33.00;8.90
44843;DHT22;31884;52.538;13.820;2023-06-10T08:29:31;34.10;8.10
44843;DHT22;31884;52.538;13.820;2023-06-10T08:31:57;33.80;7.60
44843;DHT22;31884;52.538;13.820;2023-06-10T08:34:23;33.90;6.30
44843;DHT22;31884;52.538;13.820;2023-06-10T08:36:49;33.90;7.20
44843;DHT22;31884;52.538;13.820;2023-06-10T08:39:20;33.90;6.40
44843;DHT22;31884;52.538;13.820;2023-06-10T08:42:17;32.90;7.50
44843;DHT22;31884;52.538;13.820;2023-06-10T08:44:37;32.30;8.30
44843;DHT22;31884;52.538;13.820;2023-06-10T08:47:08;31.70;8.50
44843;DHT22;31884;52.538;13.820;2023-06-10T08:49:40;31.30;9.00
44843;DHT22;31884;52.538;13.820;2023-06-10T08:52:07;30.90;9.80
44843;DHT22;31884;52.538;13.820;2023-06-10T08:54:33;30.20;9.60
44843;DHT22;31884;52.538;13.820;2023-06-10T08:57:05;29.90;10.20
44843;DHT22;31884;52.538;13.820;2023-06-10T08:59:31;30.10;10.20
44843;DHT22;31884;52.538;13.820;2023-06-10T09:01:57;30.10;10.20
44843;DHT22;31884;52.538;13.820;2023-06-10T09:04:24;30.30;10.40
44843;DHT22;31884;52.538;13.820;2023-06-10T09:06:50;30.30;10.00
44843;DHT22;31884;52.538;13.820;2023-06-10T09:09:16;30.10;10.30
44843;DHT22;31884;52.538;13.820;2023-06-10T09:11:44;30.30;10.10
44843;DHT22;31884;52.538;13.820;2023-06-10T09:14:10;30.30;10.20
44843;DHT22;31884;52.538;13.820;2023-06-10T09:16:38;30.20;10.00
44843;DHT22;31884;52.538;13.820;2023-06-10T09:19:03;29.70;10.60
44843;DHT22;31884;52.538;13.820;2023-06-10T09:21:34;29.30;11.00
44843;DHT22;31884;52.538;13.820;2023-06-10T09:24:01;29.30;11.20
44843;DHT22;31884;52.538;13.820;2023-06-10T09:26:29;29.20;11.70
44843;DHT22;31884;52.538;13.820;2023-06-10T09:29:04;29.20;11.30
44843;DHT22;31884;52.538;13.820;2023-06-10T09:31:38;29.40;12.40
44843;DHT22;31884;52.538;13.820;2023-06-10T09:34:11;29.30;11.10
44843;DHT22;31884;52.538;13.820;2023-06-10T09:36:38;29.50;12.10
44843;DHT22;31884;52.538;13.820;2023-06-10T09:39:04;29.80;11.90
44843;DHT22;31884;52.538;13.820;2023-06-10T09:41:34;30.20;11.60
44843;DHT22;31884;52.538;13.820;2023-06-10T09:44:00;30.90;11.10
44843;DHT22;31884;52.538;13.820;2023-06-10T09:46:31;31.20;11.10
44843;DHT22;31884;52.538;13.820;2023-06-10T09:48:58;31.30;11.20
44843;DHT22;31884;52.538;13.820;2023-06-10T09:51:23;30.60;11.30
44843;DHT22;31884;52.538;13.820;2023-06-10T09:53:51;30.10;12.20
44843;DHT22;31884;52.538;13.820;2023-06-10T09:56:16;29.90;12.40
44843;DHT22;31884;52.538;13.820;2023-06-10T09:58:42;29.50;12.40
44843;DHT22;31884;52.538;13.820;2023-06-10T10:01:09;28.70;12.80
44843;DHT22;31884;52.538;13.820;2023-06-10T10:03:50;28.90;13.10
44843;DHT22;31884;52.538;13.820;2023-06-10T10:06:17;29.20;12.00
44843;DHT22;31884;52.538;13.820;2023-06-10T10:08:43;29.40;12.30
44843;DHT22;31884;52.538;13.820;2023-06-10T10:11:10;28.60;12.30
44843;DHT22;31884;52.538;13.820;2023-06-10T10:13:36;28.60;12.40
44843;DHT22;31884;52.538;13.820;2023-06-10T10:16:09;28.40;13.40
44843;DHT22;31884;52.538;13.820;2023-06-10T10:18:39;28.40;12.30
44843;DHT22;31884;52.538;13.820;2023-06-10T10:21:11;28.70;12.10
44843;DHT22;31884;52.538;13.820;2023-06-10T10:23:58;29.10;12.00
44843;DHT22;31884;52.538;13.820;2023-06-10T10:26:26;29.30;11.00
44843;DHT22;31884;52.538;13.820;2023-06-10T10:29:10;29.10;10.80
44843;DHT22;31884;52.538;13.820;2023-06-10T10:31:36;29.20;9.80
44843;DHT22;31884;52.538;13.820;2023-06-10T10:34:09;28.90;10.20
44843;DHT22;31884;52.538;13.820;2023-06-10T10:36:37;28.80;10.80
44843;DHT22;31884;52.538;13.820;2023-06-10T10:39:04;28.20;11.50
44843;DHT22;31884;52.538;13.820;2023-06-10T10:41:31;28.00;12.10
44843;DHT22;31884;52.538;13.820;2023-06-10T10:43:58;27.70;11.40
44843;DHT22;31884;52.538;13.820;2023-06-10T10:46:24;27.20;12.40
44843;DHT22;31884;52.538;13.820;2023-06-10T10:48:53;27.30;12.80
44843;DHT22;31884;52.538;13.820;2023-06-10T10:51:19;27.20;12.90
44843;DHT22;31884;52.538;13.820;2023-06-10T10:54:14;27.10;13.00
44843;DHT22;31884;52.538;13.820;2023-06-10T11:02:19;27.40;13.80
44843;DHT22;31884;52.538;13.820;2023-06-10T11:04:56;27.50;13.50
44843;DHT22;31884;52.538;13.820;2023-06-10T11:07:24;27.60;13.40
44843;DHT22;31884;52.538;13.820;2023-06-10T11:10:09;27.80;15.00
44843;DHT22;31884;52.538;13.820;2023-06-10T11:12:42;27.60;15.10
44843;DHT22;31884;52.538;13.820;2023-06-10T11:15:08;27.40;16.10
44843;DHT22;31884;52.538;13.820;2023-06-10T11:17:33;27.20;16.00
44843;DHT22;31884;52.538;13.820;2023-06-10T11:19:59;27.30;17.10
44843;DHT22;31884;52.538;13.820;2023-06-10T11:22:25;27.40;16.70
44843;DHT22;31884;52.538;13.820;2023-06-10T11:24:51;27.30;17.00
44843;DHT22;31884;52.538;13.820;2023-06-10T11:27:23;27.30;16.40
44843;DHT22;31884;52.538;13.820;2023-06-10T11:32:23;27.10;17.20
44843;DHT22;31884;52.538;13.820;2023-06-10T11:34:53;27.10;17.50
44843;DHT22;31884;52.538;13.820;2023-06-10T11:37:19;27.00;17.80
44843;DHT22;31884;52.538;13.820;2023-06-10T11:39:45;27.00;17.40
44843;DHT22;31884;52.538;13.820;2023-06-10T11:42:11;27.00;17.60
44843;DHT22;31884;52.538;13.820;2023-06-10T11:44:36;27.00;16.80
44843;DHT22;31884;52.538;13.820;2023-06-10T11:47:03;27.00;16.70
44843;DHT22;31884;52.538;13.820;2023-06-10T11:49:29;27.20;17.80
44843;DHT22;31884;52.538;13.820;2023-06-10T11:51:54;27.20;17.20
44843;DHT22;31884;52.538;13.820;2023-06-10T11:54:20;27.30;16.90
44843;DHT22;31884;52.538;13.820;2023-06-10T11:56:47;27.10;17.60
44843;DHT22;31884;52.538;13.820;2023-06-10T11:59:13;27.00;17.50
44843;DHT22;31884;52.538;13.820;2023-06-10T12:01:44;27.10;18.00
44843;DHT22;31884;52.538;13.820;2023-06-10T12:04:11;27.10;18.00
44843;DHT22;31884;52.538;13.820;2023-06-10T12:06:45;27.10;18.10
44843;DHT22;31884;52.538;13.820;2023-06-10T12:11:50;27.00;19.00
44843;DHT22;31884;52.538;13.820;2023-06-10T12:14:16;27.10;18.90
44843;DHT22;31884;52.538;13.820;2023-06-10T12:17:02;27.20;18.70
44843;DHT22;31884;52.538;13.820;2023-06-10T12:19:28;27.20;18.30
44843;DHT22;31884;52.538;13.820;2023-06-10T12:21:53;27.10;17.30
44843;DHT22;31884;52.538;13.820;2023-06-10T12:24:19;27.10;18.30
44843;DHT22;31884;52.538;13.820;2023-06-10T12:26:44;27.10;18.30
44843;DHT22;31884;52.538;13.820;2023-06-10T12:29:23;27.10;18.10
44843;DHT22;31884;52.538;13.820;2023-06-10T12:32:02;27.20;18.40
44843;DHT22;31884;52.538;13.820;2023-06-10T12:34:37;27.20;19.10
44843;DHT22;31884;52.538;13.820;2023-06-10T12:37:04;27.30;18.30
44843;DHT22;31884;52.538;13.820;2023-06-10T12:39:32;27.30;17.40
44843;DHT22;31884;52.538;13.820;2023-06-10T12:41:58;27.20;16.20
44843;DHT22;31884;52.538;13.820;2023-06-10T12:44:34;27.10;17.00
44843;DHT22;31884;52.538;13.820;2023-06-10T12:47:06;27.10;18.00
44843;DHT22;31884;52.538;13.820;2023-06-10T12:49:32;27.20;17.60
44843;DHT22;31884;52.538;13.820;2023-06-10T12:51:57;27.20;16.70
44843;DHT22;31884;52.538;13.820;2023-06-10T12:54:23;27.30;14.90
44843;DHT22;31884;52.538;13.820;2023-06-10T12:56:49;27.30;14.70
44843;DHT22;31884;52.538;13.820;2023-06-10T12:59:14;27.40;14.70
44843;DHT22;31884;52.538;13.820;2023-06-10T13:01:40;27.50;14.10
44843;DHT22;31884;52.538;13.820;2023-06-10T13:04:05;27.50;11.90
44843;DHT22;31884;52.538;13.820;2023-06-10T13:06:32;27.60;12.70
44843;DHT22;31884;52.538;13.820;2023-06-10T13:09:02;27.70;11.80
44843;DHT22;31884;52.538;13.820;2023-06-10T13:11:28;27.90;12.00
44843;DHT22;31884;52.538;13.820;2023-06-10T13:13:53;27.90;11.70
44843;DHT22;31884;52.538;13.820;2023-06-10T13:16:19;27.90;11.90
44843;DHT22;31884;52.538;13.820;2023-06-10T13:18:44;27.90;11.70
44843;DHT22;31884;52.538;13.820;2023-06-10T13:21:10;28.00;12.00
44843;DHT22;31884;52.538;13.820;2023-06-10T13:23:35;27.90;11.50
44843;DHT22;31884;52.538;13.820;2023-06-10T13:26:01;27.80;11.50
44843;DHT22;31884;52.538;13.820;2023-06-10T13:28:28;27.80;11.90
44843;DHT22;31884;52.538;13.820;2023-06-10T13:30:53;27.90;12.30
44843;DHT22;31884;52.538;13.820;2023-06-10T13:33:19;28.00;12.00
44843;DHT22;31884;52.538;13.820;2023-06-10T13:35:44;27.90;11.90
44843;DHT22;31884;52.538;13.820;2023-06-10T13:38:10;27.80;11.60
44843;DHT22;31884;52.538;13.820;2023-06-10T13:40:35;27.80;11.20
44843;DHT22;31884;52.538;13.820;2023-06-10T13:43:01;27.80;11.80
44843;DHT22;31884;52.538;13.820;2023-06-10T13:45:27;27.80;11.60
44843;DHT22;31884;52.538;13.820;2023-06-10T13:47:53;27.90;11.30
44843;DHT22;31884;52.538;13.820;2023-06-10T13:50:18;27.90;10.70
44843;DHT22;31884;52.538;13.820;2023-06-10T13:52:44;27.80;10.80
44843;DHT22;31884;52.538;13.820;2023-06-10T13:55:10;27.70;10.40
44843;DHT22;31884;52.538;13.820;2023-06-10T13:57:35;27.70;10.90
44843;DHT22;31884;52.538;13.820;2023-06-10T14:00:01;27.70;11.80
44843;DHT22;31884;52.538;13.820;2023-06-10T14:02:26;27.60;13.20
44843;DHT22;31884;52.538;13.820;2023-06-10T14:04:52;27.50;13.90
44843;DHT22;31884;52.538;13.820;2023-06-10T14:07:18;27.30;14.70
44843;DHT22;31884;52.538;13.820;2023-06-10T14:09:43;27.20;13.60
44843;DHT22;31884;52.538;13.820;2023-06-10T14:12:09;27.30;13.70
44843;DHT22;31884;52.538;13.820;2023-06-10T14:14:36;27.40;11.20
44843;DHT22;31884;52.538;13.820;2023-06-10T14:17:01;27.50;11.10
44843;DHT22;31884;52.538;13.820;2023-06-10T14:19:27;27.70;10.50
44843;DHT22;31884;52.538;13.820;2023-06-10T14:21:52;27.70;10.50
44843;DHT22;31884;52.538;13.820;2023-06-10T14:24:19;27.70;10.40
44843;DHT22;31884;52.538;13.820;2023-06-10T14:26:44;27.80;9.70
44843;DHT22;31884;52.538;13.820;2023-06-10T14:29:10;27.70;8.60
44843;DHT22;31884;52.538;13.820;2023-06-10T14:31:35;27.60;9.20
44843;DHT22;31884;52.538;13.820;2023-06-10T14:34:01;27.60;9.60
44843;DHT22;31884;52.538;13.820;2023-06-10T14:36:26;27.60;9.10
44843;DHT22;31884;52.538;13.820;2023-06-10T14:38:52;27.60;8.90
44843;DHT22;31884;52.538;13.820;2023-06-10T14:41:19;27.60;8.70
44843;DHT22;31884;52.538;13.820;2023-06-10T14:43:44;27.60;8.80
44843;DHT22;31884;52.538;13.820;2023-06-10T14:46:09;27.50;8.50
44843;DHT22;31884;52.538;13.820;2023-06-10T14:48:35;27.40;7.90
44843;DHT22;31884;52.538;13.820;2023-06-10T14:51:01;27.30;8.10
44843;DHT22;31884;52.538;13.820;2023-06-10T14:53:27;27.30;8.10
44843;DHT22;31884;52.538;13.820;2023-06-10T14:55:53;27.20;7.60
44843;DHT22;31884;52.538;13.820;2023-06-10T14:58:18;27.30;7.80
44843;DHT22;31884;52.538;13.820;2023-06-10T15:00:43;27.20;6.70
44843;DHT22;31884;52.538;13.820;2023-06-10T15:03:09;27.20;7.10
44843;DHT22;31884;52.538;13.820;2023-06-10T15:05:34;27.20;6.80
44843;DHT22;31884;52.538;13.820;2023-06-10T15:08:02;27.20;7.00
44843;DHT22;31884;52.538;13.820;2023-06-10T15:10:27;27.20;6.90
44843;DHT22;31884;52.538;13.820;2023-06-10T15:12:52;27.30;6.50
44843;DHT22;31884;52.538;13.820;2023-06-10T15:15:22;27.30;6.90
44843;DHT22;31884;52.538;13.820;2023-06-10T15:17:47;27.20;6.50
44843;DHT22;31884;52.538;13.820;2023-06-10T15:20:13;27.30;5.50
44843;DHT22;31884;52.538;13.820;2023-06-10T15:22:38;27.20;5.10
44843;DHT22;31884;52.538;13.820;2023-06-10T15:25:04;27.20;5.40
44843;DHT22;31884;52.538;13.820;2023-06-10T15:27:30;27.20;4.20